createdAt,value
2022-10-23T00:00:11.647Z,67.94
2022-10-23T00:02:44.035Z,68.57
2022-10-23T00:05:14.075Z,69.23
2022-10-23T00:07:43.494Z,68.98
2022-10-23T00:10:13.116Z,68.76
2022-10-23T00:12:42.011Z,68.44
2022-10-23T00:15:12.603Z,68.73
2022-10-23T00:17:42.242Z,68.87
2022-10-23T00:20:14.424Z,69.02
2022-10-23T00:22:43.404Z,68.23
2022-10-23T00:25:13.945Z,68.56
2022-10-23T00:27:45.253Z,68.54
2022-10-23T00:30:15.221Z,68.59
2022-10-23T00:32:49.243Z,68.53
2022-10-23T00:35:17.804Z,68.70
2022-10-23T00:37:46.356Z,68.01
2022-10-23T00:40:15.737Z,68.48
2022-10-23T00:42:46.491Z,70.52
2022-10-23T00:45:27.172Z,70.54
2022-10-23T00:47:58.711Z,69.86
2022-10-23T00:50:31.691Z,70.90
2022-10-23T00:53:04.113Z,70.32
2022-10-23T00:55:35.098Z,69.11
2022-10-23T00:58:07.676Z,69.39
2022-10-23T01:00:53.477Z,69.27
2022-10-23T01:03:27.562Z,69.13
2022-10-23T01:06:05.977Z,69.52
2022-10-23T01:08:56.978Z,70.00
2022-10-23T01:11:40.653Z,68.80
2022-10-23T01:14:32.472Z,69.51
2022-10-23T01:17:08.696Z,68.90
2022-10-23T01:20:14.750Z,68.70
2022-10-23T01:23:01.397Z,69.13
2022-10-23T01:26:10.475Z,68.48
2022-10-23T01:28:48.616Z,69.10
2022-10-23T01:31:22.535Z,69.60
2022-10-23T01:33:58.090Z,69.96
2022-10-23T01:36:29.521Z,71.08
2022-10-23T01:41:46.255Z,71.12
2022-10-23T01:44:36.512Z,71.24
2022-10-23T01:47:07.887Z,70.75
2022-10-23T01:49:42.456Z,71.96
2022-10-23T01:52:13.685Z,71.82
2022-10-23T01:54:44.179Z,71.38
2022-10-23T01:57:15.007Z,71.71
2022-10-23T01:59:52.595Z,71.81
2022-10-23T02:02:22.880Z,71.69
2022-10-23T02:04:57.213Z,72.18
2022-10-23T02:07:25.367Z,71.39
2022-10-23T02:09:54.136Z,72.43
2022-10-23T02:12:22.912Z,71.85
2022-10-23T02:15:12.356Z,71.66
2022-10-23T02:18:07.452Z,71.45
2022-10-23T02:20:41.351Z,72.11
2022-10-23T02:23:16.319Z,72.71
2022-10-23T02:25:49.494Z,71.80
2022-10-23T02:28:25.091Z,70.39
2022-10-23T02:30:54.859Z,69.66
2022-10-23T02:33:27.518Z,70.65
2022-10-23T02:35:55.768Z,71.21
2022-10-23T02:38:35.769Z,71.07
2022-10-23T02:41:11.802Z,71.65
2022-10-23T02:44:22.224Z,72.74
2022-10-23T02:46:53.745Z,72.49
2022-10-23T02:49:38.561Z,72.06
2022-10-23T02:52:26.141Z,72.26
2022-10-23T02:55:31.320Z,73.00
2022-10-23T02:58:09.061Z,71.79
2022-10-23T03:00:44.324Z,72.32
2022-10-23T03:03:16.669Z,71.50
2022-10-23T03:05:46.536Z,71.91
2022-10-23T03:08:15.629Z,71.95
2022-10-23T03:10:43.766Z,70.49
2022-10-23T03:13:13.299Z,71.57
2022-10-23T03:15:41.182Z,70.33
2022-10-23T03:18:12.320Z,68.46
2022-10-23T03:20:40.825Z,67.00
2022-10-23T03:23:12.968Z,66.30
2022-10-23T03:25:41.224Z,66.16
2022-10-23T03:28:10.536Z,66.44
2022-10-23T03:30:38.733Z,66.55
2022-10-23T03:33:10.323Z,67.49
2022-10-23T03:35:38.287Z,67.53
2022-10-23T03:38:07.835Z,66.67
2022-10-23T03:40:38.904Z,67.25
2022-10-23T03:43:06.796Z,69.22
2022-10-23T03:45:37.192Z,68.23
2022-10-23T03:48:06.914Z,68.34
2022-10-23T03:50:37.115Z,67.71
2022-10-23T03:53:09.783Z,67.01
2022-10-23T03:55:37.824Z,67.46
2022-10-23T03:58:05.568Z,67.15
2022-10-23T04:00:33.650Z,67.65
2022-10-23T04:03:02.896Z,67.20
2022-10-23T04:05:31.361Z,66.16
2022-10-23T04:08:01.913Z,66.38
2022-10-23T04:10:33.320Z,65.93
2022-10-23T04:13:02.081Z,66.18
2022-10-23T04:15:33.736Z,66.48
2022-10-23T04:18:03.076Z,65.78
2022-10-23T04:20:32.389Z,65.41
2022-10-23T04:23:01.973Z,65.93
2022-10-23T04:25:29.942Z,67.48
2022-10-23T04:27:58.686Z,67.21
2022-10-23T04:30:29.086Z,67.22
2022-10-23T04:32:57.092Z,66.63
2022-10-23T04:35:24.852Z,66.87
2022-10-23T04:37:54.299Z,67.22
2022-10-23T04:40:24.074Z,67.64
2022-10-23T04:42:53.309Z,67.17
2022-10-23T04:45:22.239Z,67.28
2022-10-23T04:47:53.585Z,69.62
2022-10-23T04:50:25.646Z,68.54
2022-10-23T04:53:06.589Z,68.25
2022-10-23T04:55:35.941Z,68.00
2022-10-23T04:58:04.912Z,68.36
2022-10-23T05:00:33.433Z,68.07
2022-10-23T05:03:02.441Z,67.79
2022-10-23T05:05:31.765Z,66.81
2022-10-23T05:08:00.127Z,66.25
2022-10-23T05:10:29.947Z,65.75
2022-10-23T05:12:59.284Z,65.34
2022-10-23T05:15:27.261Z,65.40
2022-10-23T05:17:59.411Z,65.57
2022-10-23T05:20:30.773Z,66.50
2022-10-23T05:23:00.684Z,65.21
2022-10-23T05:25:30.827Z,65.39
2022-10-23T05:28:00.204Z,67.56
2022-10-23T05:30:28.529Z,67.38
2022-10-23T05:32:56.739Z,66.79
2022-10-23T05:35:25.505Z,67.17
2022-10-23T05:37:54.002Z,67.79
2022-10-23T05:40:24.410Z,68.39
2022-10-23T05:42:56.247Z,68.12
2022-10-23T05:45:29.275Z,67.63
2022-10-23T05:48:10.816Z,67.21
2022-10-23T05:50:46.509Z,67.58
2022-10-23T05:53:16.228Z,67.30
2022-10-23T05:55:46.053Z,66.67
2022-10-23T05:58:14.111Z,68.02
2022-10-23T06:00:43.902Z,68.25
2022-10-23T06:03:14.124Z,71.36
2022-10-23T06:05:49.739Z,71.49
2022-10-23T06:08:19.475Z,71.09
2022-10-23T06:10:52.673Z,69.52
2022-10-23T06:13:22.203Z,70.12
2022-10-23T06:15:51.353Z,70.89
2022-10-23T06:18:19.822Z,71.46
2022-10-23T06:20:50.720Z,72.42
2022-10-23T06:23:20.725Z,71.56
2022-10-23T06:25:53.677Z,72.48
2022-10-23T06:28:24.992Z,71.55
2022-10-23T06:30:55.611Z,71.11
2022-10-23T06:33:25.179Z,72.11
2022-10-23T06:35:56.463Z,72.24
2022-10-23T06:38:25.404Z,72.46
2022-10-23T06:40:56.180Z,72.03
2022-10-23T06:43:25.235Z,72.89
2022-10-23T06:45:54.821Z,72.24
2022-10-23T06:48:26.844Z,71.55
2022-10-23T06:50:57.127Z,70.88
2022-10-23T06:53:28.237Z,69.98
2022-10-23T06:56:00.626Z,69.68
2022-10-23T06:58:29.184Z,69.23
2022-10-23T07:01:06.407Z,68.87
2022-10-23T07:03:34.990Z,69.07
2022-10-23T07:06:08.422Z,68.92
2022-10-23T07:08:39.008Z,68.15
2022-10-23T07:11:09.346Z,67.67
2022-10-23T07:13:39.447Z,67.53
2022-10-23T07:16:16.575Z,67.39
2022-10-23T07:18:46.029Z,66.73
2022-10-23T07:21:16.995Z,66.70
2022-10-23T07:23:46.687Z,66.36
2022-10-23T07:26:16.849Z,65.63
2022-10-23T07:28:47.383Z,65.50
2022-10-23T07:31:20.533Z,64.95
2022-10-23T07:33:53.030Z,65.05
2022-10-23T07:36:24.606Z,64.21
2022-10-23T07:38:52.979Z,63.91
2022-10-23T07:41:21.627Z,63.90
2022-10-23T07:43:50.485Z,63.49
2022-10-23T07:46:19.100Z,63.20
2022-10-23T07:48:49.452Z,63.08
2022-10-23T07:51:18.799Z,63.10
2022-10-23T07:53:48.067Z,62.73
2022-10-23T07:56:21.196Z,63.16
2022-10-23T07:58:54.737Z,63.36
2022-10-23T08:01:30.994Z,62.62
2022-10-23T08:04:00.756Z,61.73
2022-10-23T08:06:30.369Z,60.82
2022-10-23T08:09:02.185Z,60.10
2022-10-23T08:11:35.870Z,59.46
2022-10-23T08:14:06.665Z,59.73
2022-10-23T08:16:37.405Z,59.59
2022-10-23T08:19:09.294Z,58.98
2022-10-23T08:21:39.576Z,58.60
2022-10-23T08:24:13.329Z,58.02
2022-10-23T08:26:42.482Z,57.48
2022-10-23T08:29:10.697Z,56.88
2022-10-23T08:31:39.196Z,56.42
2022-10-23T08:34:08.167Z,55.71
2022-10-23T08:36:36.658Z,55.78
2022-10-23T08:39:05.894Z,55.65
2022-10-23T08:41:37.946Z,55.08
2022-10-23T08:44:21.064Z,55.19
2022-10-23T08:47:30.410Z,54.84
2022-10-23T08:50:13.599Z,55.69
2022-10-23T08:52:46.074Z,56.68
2022-10-23T08:55:38.986Z,57.62
2022-10-23T08:58:16.915Z,59.22
2022-10-23T09:00:47.190Z,60.36
2022-10-23T09:03:15.644Z,59.39
2022-10-23T09:05:52.523Z,58.94
2022-10-23T09:08:28.791Z,59.90
2022-10-23T09:11:06.841Z,59.47
2022-10-23T09:13:41.050Z,61.42
2022-10-23T09:16:38.283Z,60.23
2022-10-23T09:19:14.487Z,61.22
2022-10-23T09:21:42.834Z,60.85
2022-10-23T09:24:20.029Z,60.95
2022-10-23T09:26:50.882Z,59.89
2022-10-23T09:29:25.030Z,60.86
2022-10-23T09:31:59.346Z,61.11
2022-10-23T09:34:29.455Z,59.63
2022-10-23T09:37:01.084Z,59.88
2022-10-23T09:39:39.114Z,60.42
2022-10-23T09:42:34.837Z,60.26
2022-10-23T09:45:03.517Z,60.51
2022-10-23T09:47:32.474Z,61.18
2022-10-23T09:50:00.851Z,60.53
2022-10-23T09:52:35.489Z,59.55
2022-10-23T09:55:24.999Z,58.84
2022-10-23T09:57:55.903Z,58.93
2022-10-23T10:00:26.551Z,58.28
2022-10-23T10:03:02.865Z,57.11
2022-10-23T10:05:37.651Z,57.33
2022-10-23T10:08:22.521Z,56.39
2022-10-23T10:11:15.265Z,56.39
2022-10-23T10:13:56.631Z,56.97
2022-10-23T10:16:55.479Z,57.39
2022-10-23T10:19:32.841Z,58.61
2022-10-23T10:22:04.897Z,58.67
2022-10-23T10:24:53.438Z,58.63
2022-10-23T10:27:39.233Z,58.94
2022-10-23T10:30:20.872Z,58.24
2022-10-23T10:32:59.975Z,57.64
2022-10-23T10:35:40.716Z,57.35
2022-10-23T10:38:09.636Z,58.37
2022-10-23T10:41:08.234Z,56.90
2022-10-23T10:43:50.347Z,57.48
2022-10-23T10:46:42.745Z,56.81
2022-10-23T10:49:12.652Z,56.51
2022-10-23T10:52:03.618Z,57.30
2022-10-23T10:54:50.271Z,57.36
2022-10-23T10:57:34.804Z,56.61
2022-10-23T11:00:12.768Z,57.18
2022-10-23T11:02:50.370Z,58.38
2022-10-23T11:05:22.486Z,57.89
2022-10-23T11:08:00.291Z,57.23
2022-10-23T11:10:29.315Z,56.55
2022-10-23T11:13:00.042Z,55.39
2022-10-23T11:15:41.167Z,56.23
2022-10-23T11:18:20.993Z,55.79
2022-10-23T11:20:59.724Z,54.20
2022-10-23T11:23:32.305Z,53.76
2022-10-23T11:26:14.247Z,53.58
2022-10-23T11:29:04.303Z,54.52
2022-10-23T11:31:40.283Z,54.86
2022-10-23T11:34:23.771Z,54.04
2022-10-23T11:36:53.751Z,55.46
2022-10-23T11:39:27.437Z,52.94
2022-10-23T11:42:13.427Z,53.50
2022-10-23T11:44:46.462Z,55.34
2022-10-23T11:47:40.102Z,54.93
2022-10-23T11:50:13.210Z,54.76
2022-10-23T11:53:15.051Z,56.52
2022-10-23T11:56:16.960Z,54.86
2022-10-23T11:58:56.507Z,53.66
2022-10-23T12:01:43.040Z,54.98
2022-10-23T12:04:14.411Z,53.55
2022-10-23T12:06:56.529Z,53.45
2022-10-23T12:09:37.813Z,53.16
2022-10-23T12:12:08.892Z,54.22
2022-10-23T12:14:39.807Z,52.26
2022-10-23T12:17:24.019Z,51.95
2022-10-23T12:20:03.346Z,53.68
2022-10-23T12:22:47.841Z,52.77
2022-10-23T12:25:24.665Z,52.95
2022-10-23T12:28:00.528Z,52.61
2022-10-23T12:30:41.247Z,53.56
2022-10-23T12:33:43.159Z,53.32
2022-10-23T12:36:24.856Z,54.28
2022-10-23T12:38:54.930Z,53.63
2022-10-23T12:41:27.041Z,53.39
2022-10-23T12:43:57.849Z,53.63
2022-10-23T12:46:36.894Z,53.80
2022-10-23T12:49:16.422Z,54.05
2022-10-23T12:51:45.312Z,53.23
2022-10-23T12:54:17.219Z,54.63
2022-10-23T12:56:46.021Z,55.52
2022-10-23T12:59:17.646Z,55.11
2022-10-23T13:01:50.459Z,55.48
2022-10-23T13:04:30.703Z,55.42
2022-10-23T13:07:02.467Z,56.44
2022-10-23T13:09:36.527Z,56.06
2022-10-23T13:12:09.320Z,56.46
2022-10-23T13:14:43.652Z,56.47
2022-10-23T13:17:14.518Z,56.71
2022-10-23T13:19:42.551Z,56.22
2022-10-23T13:22:21.758Z,57.30
2022-10-23T13:24:50.588Z,57.29
2022-10-23T13:27:33.822Z,58.13
2022-10-23T13:30:04.998Z,57.45
2022-10-23T13:32:36.248Z,57.13
2022-10-23T13:35:22.326Z,57.33
2022-10-23T13:37:51.614Z,58.13
2022-10-23T13:40:23.675Z,57.77
2022-10-23T13:42:53.482Z,57.57
2022-10-23T13:45:25.394Z,57.97
2022-10-23T13:47:53.853Z,57.62
2022-10-23T13:50:24.572Z,57.89
2022-10-23T13:52:53.048Z,58.56
2022-10-23T13:55:25.866Z,57.79
2022-10-23T13:57:56.675Z,58.86
2022-10-23T14:00:24.742Z,59.06
2022-10-23T14:05:20.499Z,59.70
2022-10-23T14:07:48.585Z,59.97
2022-10-23T14:10:24.552Z,59.83
2022-10-23T14:12:55.737Z,59.71
2022-10-23T14:15:24.958Z,60.14
2022-10-23T14:17:58.980Z,60.73
2022-10-23T14:20:29.921Z,60.18
2022-10-23T14:22:59.009Z,59.73
2022-10-23T14:25:28.085Z,59.59
2022-10-23T14:30:23.410Z,60.48
2022-10-23T14:32:53.060Z,60.24
2022-10-23T14:35:23.684Z,60.79
2022-10-23T14:37:52.572Z,60.19
2022-10-23T14:40:21.166Z,60.58
2022-10-23T14:42:50.695Z,61.23
2022-10-23T14:45:19.364Z,62.01
2022-10-23T14:47:47.395Z,62.05
2022-10-23T14:50:16.689Z,61.03
2022-10-23T14:52:46.187Z,61.17
2022-10-23T14:55:14.784Z,60.99
2022-10-23T14:57:45.178Z,61.27
2022-10-23T15:00:13.809Z,61.54
2022-10-23T15:02:42.386Z,61.91
2022-10-23T15:05:10.735Z,61.04
2022-10-23T15:07:40.617Z,60.84
2022-10-23T15:10:09.601Z,61.68
2022-10-23T15:12:39.773Z,61.30
2022-10-23T15:15:08.329Z,61.29
2022-10-23T15:17:37.658Z,61.38
2022-10-23T15:20:08.189Z,61.27
2022-10-23T15:22:35.721Z,62.16
2022-10-23T15:25:08.053Z,61.29
2022-10-23T15:27:35.866Z,62.48
2022-10-23T15:30:04.304Z,61.87
2022-10-23T15:32:32.970Z,61.94
2022-10-23T15:35:01.944Z,61.59
2022-10-23T15:37:31.180Z,61.58
2022-10-23T15:40:01.317Z,61.71
2022-10-23T15:42:32.338Z,62.32
2022-10-23T15:45:00.445Z,62.49
2022-10-23T15:47:29.947Z,62.11
2022-10-23T15:49:58.584Z,62.68
2022-10-23T15:52:28.254Z,61.37
2022-10-23T15:54:57.458Z,61.72
2022-10-23T15:57:27.667Z,61.70
2022-10-23T15:59:56.322Z,61.84
2022-10-23T16:02:24.420Z,61.70
2022-10-23T16:04:52.752Z,61.38
2022-10-23T16:07:21.063Z,61.36
2022-10-23T16:09:48.949Z,61.21
2022-10-23T16:12:18.870Z,60.83
2022-10-23T16:14:48.292Z,59.79
2022-10-23T16:17:19.834Z,60.64
2022-10-23T16:19:49.057Z,60.53
2022-10-23T16:22:17.585Z,60.03
2022-10-23T16:24:46.191Z,60.85
2022-10-23T16:27:14.212Z,60.16
2022-10-23T16:29:43.138Z,59.87
2022-10-23T16:32:11.589Z,60.23
2022-10-23T16:34:40.250Z,59.42
2022-10-23T16:37:10.040Z,59.94
2022-10-23T16:39:39.363Z,59.85
2022-10-23T16:42:14.809Z,60.74
2022-10-23T16:44:48.049Z,60.33
2022-10-23T16:47:19.098Z,60.22
2022-10-23T16:49:49.232Z,60.35
2022-10-23T16:52:18.566Z,60.63
2022-10-23T16:54:47.380Z,61.45
2022-10-23T16:57:15.782Z,61.55
2022-10-23T16:59:45.773Z,61.21
2022-10-23T17:02:14.652Z,60.06
2022-10-23T17:04:43.514Z,60.66
2022-10-23T17:07:13.706Z,59.73
2022-10-23T17:09:46.766Z,59.54
2022-10-23T17:12:17.354Z,60.71
2022-10-23T17:14:46.327Z,59.57
2022-10-23T17:17:15.563Z,59.46
2022-10-23T17:19:45.615Z,59.31
2022-10-23T17:22:16.099Z,60.74
2022-10-23T17:24:48.877Z,60.23
2022-10-23T17:27:20.538Z,59.89
2022-10-23T17:29:51.575Z,59.90
2022-10-23T17:34:51.363Z,59.25
2022-10-23T17:37:20.596Z,59.59
2022-10-23T17:39:53.842Z,58.93
2022-10-23T17:42:24.788Z,58.96
2022-10-23T17:44:53.872Z,58.60
2022-10-23T17:47:26.234Z,58.92
2022-10-23T17:49:54.680Z,59.03
2022-10-23T17:52:24.418Z,59.22
2022-10-23T17:54:55.627Z,59.78
2022-10-23T17:57:31.609Z,58.97
2022-10-23T18:00:00.743Z,59.06
2022-10-23T18:02:30.067Z,58.52
2022-10-23T18:04:59.204Z,58.39
2022-10-23T18:07:28.209Z,58.71
2022-10-23T18:09:55.998Z,60.22
2022-10-23T18:12:27.685Z,60.10
2022-10-23T18:14:56.683Z,60.31
2022-10-23T18:17:25.441Z,60.08
2022-10-23T18:19:58.391Z,61.26
2022-10-23T18:22:35.943Z,60.62
2022-10-23T18:25:06.113Z,60.36
2022-10-23T18:27:37.675Z,60.42
2022-10-23T18:30:07.194Z,60.85
2022-10-23T18:32:37.034Z,60.35
2022-10-23T18:35:06.353Z,60.02
2022-10-23T18:37:39.022Z,59.97
2022-10-23T18:40:13.944Z,58.89
2022-10-23T18:42:42.609Z,59.54
2022-10-23T18:45:14.665Z,59.56
2022-10-23T18:47:46.441Z,59.83
2022-10-23T18:50:16.756Z,62.03
2022-10-23T18:52:45.774Z,61.48
2022-10-23T18:55:13.961Z,61.44
2022-10-23T18:57:42.029Z,60.86
2022-10-23T19:00:12.268Z,61.10
2022-10-23T19:02:41.320Z,60.69
2022-10-23T19:05:11.055Z,61.74
2022-10-23T19:07:41.446Z,61.70
2022-10-23T19:10:14.096Z,61.64
2022-10-23T19:12:43.552Z,61.13
2022-10-23T19:15:13.663Z,60.81
2022-10-23T19:17:41.845Z,60.53
2022-10-23T19:20:14.793Z,60.91
2022-10-23T19:22:46.241Z,61.43
2022-10-23T19:25:19.822Z,61.03
2022-10-23T19:27:48.443Z,60.93
2022-10-23T19:30:21.898Z,61.53
2022-10-23T19:32:52.884Z,62.43
2022-10-23T19:35:22.596Z,63.84
2022-10-23T19:37:52.282Z,63.59
2022-10-23T19:40:20.955Z,63.30
2022-10-23T19:42:51.451Z,64.44
2022-10-23T19:45:20.911Z,64.57
2022-10-23T19:47:50.908Z,65.00
2022-10-23T19:50:19.782Z,64.68
2022-10-23T19:52:48.704Z,64.16
2022-10-23T19:55:17.603Z,64.04
2022-10-23T19:57:48.947Z,65.47
2022-10-23T20:00:21.082Z,64.67
2022-10-23T20:02:51.458Z,64.46
2022-10-23T20:05:22.667Z,65.18
2022-10-23T20:07:51.514Z,64.88
2022-10-23T20:10:19.898Z,64.57
2022-10-23T20:12:56.956Z,63.75
2022-10-23T20:15:40.540Z,64.02
2022-10-23T20:18:10.661Z,63.58
2022-10-23T20:20:44.208Z,63.46
2022-10-23T20:23:17.207Z,62.92
2022-10-23T20:25:51.188Z,62.79
2022-10-23T20:28:24.932Z,63.96
2022-10-23T20:31:00.385Z,64.21
2022-10-23T20:33:30.000Z,64.03
2022-10-23T20:36:00.040Z,64.55
2022-10-23T20:38:32.269Z,64.47
2022-10-23T20:41:06.357Z,65.04
2022-10-23T20:43:36.469Z,65.61
2022-10-23T20:46:10.530Z,65.06
2022-10-23T20:48:44.394Z,64.39
2022-10-23T20:51:24.835Z,64.66
2022-10-23T20:53:56.700Z,65.45
2022-10-23T20:56:30.749Z,65.53
2022-10-23T20:59:08.453Z,65.96
2022-10-23T21:01:41.642Z,66.31
2022-10-23T21:04:13.195Z,65.24
2022-10-23T21:06:57.821Z,66.22
2022-10-23T21:09:31.103Z,66.86
2022-10-23T21:12:00.523Z,67.29
2022-10-23T21:14:29.446Z,66.73
2022-10-23T21:16:57.302Z,67.84
2022-10-23T21:19:26.384Z,67.67
2022-10-23T21:21:55.527Z,67.68
2022-10-23T21:24:24.708Z,67.60
2022-10-23T21:26:53.393Z,67.87
2022-10-23T21:29:21.287Z,68.11
2022-10-23T21:31:54.257Z,67.28
2022-10-23T21:34:24.747Z,67.26
2022-10-23T21:37:11.879Z,66.73
2022-10-23T21:39:42.587Z,67.26
2022-10-23T21:42:11.877Z,67.81
2022-10-23T21:44:40.021Z,68.10
2022-10-23T21:47:14.651Z,68.74
2022-10-23T21:49:44.184Z,68.33
2022-10-23T21:52:14.042Z,67.70
2022-10-23T21:54:45.087Z,68.09
2022-10-23T21:57:14.555Z,68.00
2022-10-23T21:59:42.651Z,68.82
2022-10-23T22:02:14.146Z,68.94
2022-10-23T22:04:44.440Z,68.82
2022-10-23T22:07:19.193Z,68.84
2022-10-23T22:09:49.358Z,68.20
2022-10-23T22:12:20.936Z,68.43
2022-10-23T22:14:53.502Z,68.70
2022-10-23T22:17:24.985Z,69.11
2022-10-23T22:19:57.542Z,69.06
2022-10-23T22:22:26.500Z,68.97
2022-10-23T22:24:59.325Z,68.48
2022-10-23T22:27:28.558Z,68.49
2022-10-23T22:30:05.895Z,68.20
2022-10-23T22:32:36.916Z,67.91
2022-10-23T22:35:08.625Z,68.80
2022-10-23T22:37:38.419Z,68.62
2022-10-23T22:40:10.785Z,69.14
2022-10-23T22:42:40.388Z,68.61
2022-10-23T22:45:12.111Z,68.86
2022-10-23T22:47:43.630Z,68.31
2022-10-23T22:50:16.112Z,68.20
2022-10-23T22:52:46.159Z,68.30
2022-10-23T22:55:18.198Z,68.35
2022-10-23T22:57:47.899Z,68.91
2022-10-23T23:00:19.142Z,68.45
2022-10-23T23:02:48.785Z,68.42
2022-10-23T23:05:21.985Z,68.21
2022-10-23T23:07:53.317Z,68.82
2022-10-23T23:10:23.017Z,69.18
2022-10-23T23:12:56.012Z,69.19
2022-10-23T23:15:30.285Z,68.69
2022-10-23T23:18:00.609Z,68.50
2022-10-23T23:20:31.327Z,68.88
2022-10-23T23:23:01.039Z,69.06
2022-10-23T23:25:33.904Z,69.46
2022-10-23T23:28:02.951Z,69.46
2022-10-23T23:30:34.139Z,69.03
2022-10-23T23:33:05.268Z,69.62
2022-10-23T23:35:42.242Z,68.97
2022-10-23T23:38:12.960Z,68.60
2022-10-23T23:40:51.616Z,68.73
2022-10-23T23:43:21.814Z,68.21
2022-10-23T23:45:53.684Z,68.83
2022-10-23T23:48:23.455Z,68.80
2022-10-23T23:50:56.020Z,68.79
2022-10-23T23:53:26.145Z,68.61
2022-10-23T23:56:00.124Z,68.56
2022-10-23T23:58:30.200Z,68.28
